createdAt,value
2019-01-03T00:01:21.410Z,79.70
2019-01-03T00:06:50.373Z,80.80
2019-01-03T00:12:12.609Z,81.20
2019-01-03T00:17:34.380Z,81.10
2019-01-03T00:22:56.524Z,82.70
2019-01-03T00:28:18.148Z,82.50
2019-01-03T00:33:43.002Z,84.60
2019-01-03T00:39:13.343Z,83.20
2019-01-03T00:44:30.117Z,83.50
2019-01-03T00:49:52.915Z,82.50
2019-01-03T00:55:14.544Z,83.80
2019-01-03T01:00:33.194Z,83.40
2019-01-03T01:05:54.396Z,86.10
2019-01-03T01:11:14.932Z,85.10
2019-01-03T01:16:41.571Z,84.40
2019-01-03T01:22:03.088Z,84.20
2019-01-03T01:27:27.423Z,85.10
2019-01-03T01:32:49.318Z,86.20
2019-01-03T01:38:11.177Z,86.70
2019-01-03T01:43:32.851Z,87.00
2019-01-03T01:48:48.074Z,86.70
2019-01-03T01:54:07.230Z,87.60
2019-01-03T01:59:39.111Z,89.00
2019-01-03T02:05:00.577Z,90.00
2019-01-03T02:10:32.841Z,89.80
2019-01-03T02:15:55.019Z,91.30
2019-01-03T02:21:18.416Z,89.60
2019-01-03T02:26:44.792Z,90.40
2019-01-03T02:32:19.853Z,90.50
2019-01-03T02:37:41.343Z,90.50
2019-01-03T02:43:07.028Z,90.80
2019-01-03T02:48:23.083Z,91.00
2019-01-03T02:53:41.455Z,91.60
2019-01-03T02:58:57.442Z,91.40
2019-01-03T03:04:31.300Z,92.00
2019-01-03T03:10:06.421Z,92.00
2019-01-03T03:15:35.811Z,92.30
2019-01-03T03:20:56.202Z,93.70
2019-01-03T03:26:25.849Z,92.40
2019-01-03T03:31:45.125Z,93.00
2019-01-03T03:37:07.795Z,93.50
2019-01-03T03:42:22.665Z,93.90
2019-01-03T03:47:40.322Z,93.70
2019-01-03T03:53:01.962Z,93.80
2019-01-03T03:58:18.552Z,93.90
2019-01-03T04:03:39.942Z,93.10
2019-01-03T04:09:05.555Z,93.80
2019-01-03T04:14:28.353Z,93.50
2019-01-03T04:19:50.289Z,93.80
2019-01-03T04:25:16.228Z,94.00
2019-01-03T04:30:21.540Z,93.70
2019-01-03T04:35:46.333Z,93.50
2019-01-03T04:40:59.321Z,94.30
2019-01-03T04:46:18.446Z,94.20
2019-01-03T04:51:50.238Z,93.70
2019-01-03T04:57:15.076Z,94.30
2019-01-03T05:02:29.007Z,94.40
2019-01-03T05:07:50.427Z,94.30
2019-01-03T05:13:12.313Z,94.50
2019-01-03T05:18:32.929Z,94.60
2019-01-03T05:23:57.276Z,94.70
2019-01-03T05:29:17.837Z,94.70
2019-01-03T05:34:38.555Z,95.00
2019-01-03T05:39:52.208Z,94.80
2019-01-03T05:45:33.639Z,94.90
2019-01-03T05:51:01.205Z,94.30
2019-01-03T05:56:22.947Z,94.20
2019-01-03T06:01:44.806Z,93.20
2019-01-03T06:07:21.086Z,92.90
2019-01-03T06:12:51.224Z,93.00
2019-01-03T06:18:13.058Z,92.40
2019-01-03T06:23:45.568Z,92.10
2019-01-03T06:29:07.189Z,92.30
2019-01-03T06:34:29.039Z,92.10
2019-01-03T06:39:41.619Z,92.10
2019-01-03T06:45:08.930Z,92.70
2019-01-03T06:50:31.757Z,93.50
2019-01-03T06:55:59.449Z,92.30
2019-01-03T07:01:28.112Z,92.00
2019-01-03T07:06:59.985Z,91.50
2019-01-03T07:12:15.303Z,92.00
2019-01-03T07:17:40.246Z,91.40
2019-01-03T07:23:07.816Z,92.40
2019-01-03T07:28:46.074Z,91.40
2019-01-03T07:34:10.736Z,91.70
2019-01-03T07:39:32.153Z,92.20
2019-01-03T07:45:12.299Z,91.70
2019-01-03T07:50:32.889Z,93.00
2019-01-03T07:55:54.726Z,91.10
2019-01-03T08:01:08.600Z,91.40
2019-01-03T08:06:34.455Z,91.20
2019-01-03T08:11:56.510Z,90.80
2019-01-03T08:17:12.621Z,90.90
2019-01-03T08:22:35.497Z,90.40
2019-01-03T08:27:56.007Z,90.70
2019-01-03T08:33:17.844Z,90.70
2019-01-03T08:38:37.693Z,90.00
2019-01-03T08:43:59.459Z,89.90
2019-01-03T08:49:22.889Z,90.40
2019-01-03T08:54:41.155Z,90.20
2019-01-03T09:00:03.009Z,90.10
2019-01-03T09:05:34.070Z,91.40
2019-01-03T09:10:56.033Z,89.50
2019-01-03T09:16:23.003Z,90.70
2019-01-03T09:21:52.720Z,90.20
2019-01-03T09:27:30.940Z,92.00
2019-01-03T09:32:52.671Z,91.10
2019-01-03T09:38:06.670Z,90.50
2019-01-03T09:43:28.403Z,90.20
2019-01-03T09:48:32.078Z,90.50
2019-01-03T09:53:35.781Z,91.80
2019-01-03T09:58:39.468Z,91.40
2019-01-03T10:03:43.485Z,92.20
2019-01-03T10:08:47.193Z,91.50
2019-01-03T10:13:50.878Z,92.30
2019-01-03T10:18:54.561Z,90.70
2019-01-03T10:23:58.223Z,91.10
2019-01-03T10:29:01.889Z,91.00
2019-01-03T10:34:06.225Z,91.20
2019-01-03T10:39:10.234Z,91.30
2019-01-03T10:44:13.957Z,90.70
2019-01-03T10:49:17.677Z,90.40
2019-01-03T10:54:21.407Z,90.70
2019-01-03T10:59:25.756Z,90.70
2019-01-03T11:04:29.940Z,90.20
2019-01-03T11:09:34.360Z,90.00
2019-01-03T11:14:38.139Z,88.90
2019-01-03T11:19:41.950Z,86.80
2019-01-03T11:24:45.946Z,90.30
2019-01-03T11:29:49.701Z,86.10
2019-01-03T11:34:53.382Z,85.60
2019-01-03T11:39:57.149Z,84.60
2019-01-03T11:45:00.855Z,88.00
2019-01-03T11:50:05.525Z,87.90
2019-01-03T11:55:09.584Z,90.10
2019-01-03T12:00:13.308Z,90.20
2019-01-03T12:05:17.034Z,89.70
2019-01-03T12:10:21.047Z,90.10
2019-01-03T12:15:24.750Z,90.30
2019-01-03T12:20:28.421Z,91.50
2019-01-03T12:25:32.153Z,91.00
2019-01-03T12:30:36.165Z,90.40
2019-01-03T12:35:40.181Z,90.90
2019-01-03T12:40:43.968Z,91.10
2019-01-03T12:45:47.967Z,91.10
2019-01-03T12:50:51.679Z,91.90
2019-01-03T12:55:55.676Z,91.70
2019-01-03T13:00:59.634Z,91.50
2019-01-03T13:06:05.869Z,92.00
2019-01-03T13:11:09.901Z,91.30
2019-01-03T13:16:13.852Z,91.10
2019-01-03T13:21:17.598Z,91.40
2019-01-03T13:26:21.785Z,91.30
2019-01-03T13:31:25.496Z,91.50
2019-01-03T13:36:29.449Z,91.50
2019-01-03T13:41:33.124Z,91.50
2019-01-03T13:46:36.822Z,91.50
2019-01-03T13:51:40.840Z,91.90
2019-01-03T13:56:44.764Z,90.90
2019-01-03T14:01:48.458Z,90.90
2019-01-03T14:06:52.519Z,90.60
2019-01-03T14:11:56.208Z,90.30
2019-01-03T14:16:59.920Z,90.20
2019-01-03T14:22:03.617Z,90.40
2019-01-03T14:27:07.368Z,90.60
2019-01-03T14:32:23.447Z,90.80
2019-01-03T14:37:27.169Z,90.00
2019-01-03T14:42:31.270Z,90.30
2019-01-03T14:47:36.866Z,90.00
2019-01-03T14:52:40.978Z,90.80
2019-01-03T14:57:44.687Z,90.80
2019-01-03T15:08:54.750Z,92.00
2019-01-03T15:14:41.321Z,91.40
2019-01-03T15:19:45.187Z,91.70
2019-01-03T15:24:48.904Z,92.20
2019-01-03T15:30:17.157Z,92.40
2019-01-03T15:35:20.983Z,92.60
2019-01-03T15:40:24.711Z,92.80
2019-01-03T15:45:31.003Z,92.80
2019-01-03T15:50:35.081Z,92.60
2019-01-03T15:55:38.749Z,93.70
2019-01-03T16:00:42.720Z,93.00
2019-01-03T16:05:46.427Z,93.00
2019-01-03T16:10:50.182Z,92.80
2019-01-03T16:15:56.380Z,92.30
2019-01-03T16:21:00.072Z,92.70
2019-01-03T16:26:03.899Z,92.70
2019-01-03T16:31:27.024Z,93.30
2019-01-03T16:36:31.013Z,93.10
2019-01-03T16:41:35.000Z,93.90
2019-01-03T16:46:38.691Z,93.30
2019-01-03T16:51:42.435Z,93.60
2019-01-03T16:56:46.119Z,94.50
2019-01-03T17:01:49.845Z,94.30
2019-01-03T17:06:53.843Z,95.20
2019-01-03T17:11:57.580Z,94.90
2019-01-03T17:17:01.745Z,95.70
2019-01-03T17:22:05.724Z,95.20
2019-01-03T17:27:09.942Z,95.30
2019-01-03T17:32:13.856Z,95.00
2019-01-03T17:37:17.545Z,95.20
2019-01-03T17:42:21.339Z,95.90
2019-01-03T17:47:25.007Z,94.90
2019-01-03T17:52:29.023Z,97.80
2019-01-03T17:57:32.787Z,95.30
2019-01-03T18:02:36.482Z,95.40
2019-01-03T18:07:40.235Z,95.30
2019-01-03T18:12:44.296Z,95.40
2019-01-03T18:17:47.958Z,95.40
2019-01-03T18:22:51.641Z,95.50
2019-01-03T18:27:55.388Z,95.40
2019-01-03T18:32:59.101Z,95.40
2019-01-03T18:38:03.025Z,95.30
2019-01-03T18:43:06.697Z,95.80
2019-01-03T18:48:10.497Z,95.30
2019-01-03T18:53:15.245Z,95.60
2019-01-03T18:58:19.426Z,95.50
2019-01-03T19:03:23.143Z,95.30
2019-01-03T19:08:26.885Z,94.40
2019-01-03T19:13:30.866Z,94.20
2019-01-03T19:18:34.663Z,94.50
2019-01-03T19:23:38.368Z,94.50
2019-01-03T19:28:42.043Z,95.00
2019-01-03T19:33:45.848Z,95.20
2019-01-03T19:38:49.609Z,95.70
2019-01-03T19:43:53.598Z,95.70
2019-01-03T19:48:57.285Z,95.30
2019-01-03T19:54:00.952Z,95.40
2019-01-03T19:59:04.636Z,95.30
2019-01-03T20:04:08.432Z,95.30
2019-01-03T20:09:12.484Z,94.60
2019-01-03T20:14:16.297Z,94.60
2019-01-03T20:19:20.426Z,95.10
2019-01-03T20:24:24.340Z,95.30
2019-01-03T20:29:28.019Z,95.60
2019-01-03T20:34:34.517Z,95.80
2019-01-03T20:39:38.227Z,96.50
2019-01-03T20:44:42.180Z,96.80
2019-01-03T20:49:46.084Z,97.20
2019-01-03T20:54:49.797Z,97.60
2019-01-03T20:59:53.501Z,98.20
2019-01-03T21:04:57.477Z,98.40
2019-01-03T21:10:01.428Z,98.40
2019-01-03T21:15:06.561Z,98.40
2019-01-03T21:20:11.268Z,98.50
2019-01-03T21:25:14.980Z,98.50
2019-01-03T21:30:20.065Z,98.50
2019-01-03T21:35:24.102Z,98.30
2019-01-03T21:40:27.867Z,98.50
2019-01-03T21:45:31.554Z,98.50
2019-01-03T21:50:35.457Z,98.70
2019-01-03T21:55:39.146Z,98.90
2019-01-03T22:00:45.298Z,99.10
2019-01-03T22:05:50.175Z,99.20
2019-01-03T22:10:53.921Z,99.30
2019-01-03T22:15:57.591Z,99.40
2019-01-03T22:21:01.564Z,99.40
2019-01-03T22:26:05.283Z,99.20
2019-01-03T22:31:10.326Z,99.50
2019-01-03T22:36:16.080Z,99.70
2019-01-03T22:41:20.045Z,99.80
2019-01-03T22:46:24.080Z,99.80
2019-01-03T22:51:28.107Z,99.90
2019-01-03T22:56:32.370Z,99.90
2019-01-03T23:01:36.248Z,99.90
2019-01-03T23:06:39.921Z,99.70
2019-01-03T23:11:43.585Z,99.90
2019-01-03T23:16:47.278Z,99.90
2019-01-03T23:21:50.978Z,99.90
2019-01-03T23:26:54.657Z,99.90
2019-01-03T23:31:58.335Z,99.90
2019-01-03T23:37:02.305Z,99.90
2019-01-03T23:42:06.358Z,99.90
2019-01-03T23:47:10.379Z,99.90
2019-01-03T23:52:14.865Z,99.80
2019-01-03T23:57:18.529Z,99.80
